sensor_id;sensor_type;location;lat;lon;timestamp;P1;durP1;ratioP1;P2;durP2;ratioP2
50575;SDS011;76633;45.642;12.198;2024-02-26T07:52:00;10.82;;;9.45;;
50575;SDS011;76633;45.642;12.198;2024-02-26T07:54:26;12.10;;;9.50;;
50575;SDS011;76633;45.642;12.198;2024-02-26T07:56:52;10.88;;;9.77;;
50575;SDS011;76633;45.642;12.198;2024-02-26T07:59:17;12.32;;;10.07;;
50575;SDS011;76633;45.642;12.198;2024-02-26T08:01:43;13.40;;;10.07;;
50575;SDS011;76633;45.642;12.198;2024-02-26T08:04:09;10.57;;;9.43;;
50575;SDS011;76633;45.642;12.198;2024-02-26T08:06:34;11.20;;;10.10;;
50575;SDS011;76633;45.642;12.198;2024-02-26T08:09:00;14.85;;;9.57;;
50575;SDS011;76633;45.642;12.198;2024-02-26T08:11:26;13.38;;;9.90;;
50575;SDS011;76633;45.642;12.198;2024-02-26T08:13:53;12.50;;;9.90;;
50575;SDS011;76633;45.642;12.198;2024-02-26T08:16:18;12.50;;;9.85;;
50575;SDS011;76633;45.642;12.198;2024-02-26T08:18:44;12.30;;;9.32;;
50575;SDS011;76633;45.642;12.198;2024-02-26T08:21:10;10.57;;;9.38;;
50575;SDS011;76633;45.642;12.198;2024-02-26T08:23:35;9.85;;;8.95;;
50575;SDS011;76633;45.642;12.198;2024-02-26T08:26:01;12.88;;;8.90;;
50575;SDS011;76633;45.642;12.198;2024-02-26T08:28:29;10.98;;;8.45;;
50575;SDS011;76633;45.642;12.198;2024-02-26T08:30:54;9.88;;;8.40;;
50575;SDS011;76633;45.642;12.198;2024-02-26T08:33:20;8.85;;;7.95;;
50575;SDS011;76633;45.642;12.198;2024-02-26T08:35:46;9.43;;;8.05;;
50575;SDS011;76633;45.642;12.198;2024-02-26T08:38:12;10.02;;;8.27;;
50575;SDS011;76633;45.642;12.198;2024-02-26T08:40:37;12.40;;;8.40;;
50575;SDS011;76633;45.642;12.198;2024-02-26T08:43:03;12.27;;;8.25;;
50575;SDS011;76633;45.642;12.198;2024-02-26T08:45:29;10.40;;;8.32;;
50575;SDS011;76633;45.642;12.198;2024-02-26T08:47:54;11.63;;;8.90;;
50575;SDS011;76633;45.642;12.198;2024-02-26T08:50:20;12.90;;;9.65;;
50575;SDS011;76633;45.642;12.198;2024-02-26T08:52:46;11.80;;;7.85;;
50575;SDS011;76633;45.642;12.198;2024-02-26T08:55:15;11.95;;;8.65;;
50575;SDS011;76633;45.642;12.198;2024-02-26T08:57:41;10.52;;;7.35;;
50575;SDS011;76633;45.642;12.198;2024-02-26T09:00:06;13.48;;;8.38;;
50575;SDS011;76633;45.642;12.198;2024-02-26T09:02:32;11.65;;;8.18;;
50575;SDS011;76633;45.642;12.198;2024-02-26T09:04:58;13.57;;;9.02;;
50575;SDS011;76633;45.642;12.198;2024-02-26T09:07:24;11.02;;;8.55;;
50575;SDS011;76633;45.642;12.198;2024-02-26T09:09:49;10.90;;;8.75;;
50575;SDS011;76633;45.642;12.198;2024-02-26T09:12:16;12.32;;;8.30;;
50575;SDS011;76633;45.642;12.198;2024-02-26T09:14:41;9.75;;;8.50;;
50575;SDS011;76633;45.642;12.198;2024-02-26T09:17:07;10.73;;;8.68;;
50575;SDS011;76633;45.642;12.198;2024-02-26T09:19:33;12.55;;;9.32;;
50575;SDS011;76633;45.642;12.198;2024-02-26T09:21:58;10.90;;;8.93;;
50575;SDS011;76633;45.642;12.198;2024-02-26T09:24:24;9.23;;;8.23;;
50575;SDS011;76633;45.642;12.198;2024-02-26T09:26:51;14.60;;;8.73;;
50575;SDS011;76633;45.642;12.198;2024-02-26T09:29:16;11.77;;;8.30;;
50575;SDS011;76633;45.642;12.198;2024-02-26T09:31:42;11.25;;;7.68;;
50575;SDS011;76633;45.642;12.198;2024-02-26T09:34:12;12.27;;;7.90;;
50575;SDS011;76633;45.642;12.198;2024-02-26T09:36:37;12.90;;;8.88;;
50575;SDS011;76633;45.642;12.198;2024-02-26T09:39:03;10.73;;;8.40;;
50575;SDS011;76633;45.642;12.198;2024-02-26T09:41:30;12.10;;;7.82;;
50575;SDS011;76633;45.642;12.198;2024-02-26T09:43:57;10.32;;;7.68;;
50575;SDS011;76633;45.642;12.198;2024-02-26T09:46:27;13.25;;;8.27;;
50575;SDS011;76633;45.642;12.198;2024-02-26T09:48:53;11.60;;;7.85;;
50575;SDS011;76633;45.642;12.198;2024-02-26T09:51:20;10.93;;;7.97;;
50575;SDS011;76633;45.642;12.198;2024-02-26T09:53:51;10.48;;;8.18;;
50575;SDS011;76633;45.642;12.198;2024-02-26T09:56:18;10.40;;;7.82;;
50575;SDS011;76633;45.642;12.198;2024-02-26T09:58:44;11.57;;;7.90;;
50575;SDS011;76633;45.642;12.198;2024-02-26T10:01:16;12.70;;;8.88;;
50575;SDS011;76633;45.642;12.198;2024-02-26T10:03:43;13.10;;;8.52;;
50575;SDS011;76633;45.642;12.198;2024-02-26T10:06:10;10.60;;;8.32;;
50575;SDS011;76633;45.642;12.198;2024-02-26T10:08:36;11.77;;;8.38;;
50575;SDS011;76633;45.642;12.198;2024-02-26T10:11:06;13.80;;;8.25;;
50575;SDS011;76633;45.642;12.198;2024-02-26T10:13:34;10.23;;;8.45;;
50575;SDS011;76633;45.642;12.198;2024-02-26T10:16:01;10.38;;;8.38;;
50575;SDS011;76633;45.642;12.198;2024-02-26T10:18:44;9.75;;;8.02;;
50575;SDS011;76633;45.642;12.198;2024-02-26T10:21:15;9.80;;;8.25;;
50575;SDS011;76633;45.642;12.198;2024-02-26T10:23:43;12.65;;;8.65;;
50575;SDS011;76633;45.642;12.198;2024-02-26T10:26:10;15.32;;;8.60;;
50575;SDS011;76633;45.642;12.198;2024-02-26T10:28:37;14.45;;;9.20;;
50575;SDS011;76633;45.642;12.198;2024-02-26T10:31:04;10.48;;;8.88;;
50575;SDS011;76633;45.642;12.198;2024-02-26T10:33:31;13.98;;;9.68;;
50575;SDS011;76633;45.642;12.198;2024-02-26T10:36:00;11.52;;;9.15;;
50575;SDS011;76633;45.642;12.198;2024-02-26T10:38:26;11.32;;;9.45;;
50575;SDS011;76633;45.642;12.198;2024-02-26T10:40:52;9.80;;;8.90;;
50575;SDS011;76633;45.642;12.198;2024-02-26T10:43:17;10.82;;;8.98;;
50575;SDS011;76633;45.642;12.198;2024-02-26T10:45:43;11.85;;;8.98;;
50575;SDS011;76633;45.642;12.198;2024-02-26T10:48:11;10.95;;;8.63;;
50575;SDS011;76633;45.642;12.198;2024-02-26T10:50:38;11.30;;;7.15;;
50575;SDS011;76633;45.642;12.198;2024-02-26T10:53:05;11.55;;;8.50;;
50575;SDS011;76633;45.642;12.198;2024-02-26T10:55:40;12.27;;;8.90;;
50575;SDS011;76633;45.642;12.198;2024-02-26T10:58:06;11.95;;;8.80;;
50575;SDS011;76633;45.642;12.198;2024-02-26T11:00:33;11.25;;;8.80;;
50575;SDS011;76633;45.642;12.198;2024-02-26T11:03:03;15.63;;;10.32;;
50575;SDS011;76633;45.642;12.198;2024-02-26T11:05:30;16.13;;;10.13;;
50575;SDS011;76633;45.642;12.198;2024-02-26T11:07:59;14.55;;;10.80;;
50575;SDS011;76633;45.642;12.198;2024-02-26T11:10:26;12.68;;;9.30;;
50575;SDS011;76633;45.642;12.198;2024-02-26T11:12:55;12.82;;;10.25;;
50575;SDS011;76633;45.642;12.198;2024-02-26T11:15:23;11.70;;;9.45;;
50575;SDS011;76633;45.642;12.198;2024-02-26T11:17:49;13.20;;;10.43;;
50575;SDS011;76633;45.642;12.198;2024-02-26T11:20:19;13.75;;;9.63;;
50575;SDS011;76633;45.642;12.198;2024-02-26T11:22:45;13.98;;;9.63;;
50575;SDS011;76633;45.642;12.198;2024-02-26T11:25:11;12.60;;;8.10;;
50575;SDS011;76633;45.642;12.198;2024-02-26T11:27:42;11.98;;;9.35;;
50575;SDS011;76633;45.642;12.198;2024-02-26T11:30:11;13.75;;;8.45;;
50575;SDS011;76633;45.642;12.198;2024-02-26T11:32:40;13.57;;;7.70;;
50575;SDS011;76633;45.642;12.198;2024-02-26T11:35:10;10.13;;;7.10;;
50575;SDS011;76633;45.642;12.198;2024-02-26T11:37:40;14.00;;;7.40;;
50575;SDS011;76633;45.642;12.198;2024-02-26T11:40:09;8.02;;;6.78;;
50575;SDS011;76633;45.642;12.198;2024-02-26T11:42:43;8.13;;;7.03;;
50575;SDS011;76633;45.642;12.198;2024-02-26T11:48:20;9.82;;;6.35;;
50575;SDS011;76633;45.642;12.198;2024-02-26T11:50:51;11.13;;;6.00;;
50575;SDS011;76633;45.642;12.198;2024-02-26T11:53:22;8.93;;;5.85;;
50575;SDS011;76633;45.642;12.198;2024-02-26T11:58:40;7.47;;;5.32;;
50575;SDS011;76633;45.642;12.198;2024-02-26T12:01:35;7.75;;;5.30;;
50575;SDS011;76633;45.642;12.198;2024-02-26T12:04:16;7.45;;;4.72;;
50575;SDS011;76633;45.642;12.198;2024-02-26T12:06:55;7.78;;;5.28;;
50575;SDS011;76633;45.642;12.198;2024-02-26T12:09:36;6.75;;;5.03;;
50575;SDS011;76633;45.642;12.198;2024-02-26T12:12:09;8.10;;;5.10;;
50575;SDS011;76633;45.642;12.198;2024-02-26T12:14:39;10.13;;;5.30;;
50575;SDS011;76633;45.642;12.198;2024-02-26T12:17:18;11.50;;;5.20;;
50575;SDS011;76633;45.642;12.198;2024-02-26T12:19:45;7.18;;;4.88;;
50575;SDS011;76633;45.642;12.198;2024-02-26T12:22:12;6.78;;;5.00;;
50575;SDS011;76633;45.642;12.198;2024-02-26T12:24:39;11.90;;;5.70;;
50575;SDS011;76633;45.642;12.198;2024-02-26T12:27:05;9.25;;;4.90;;
50575;SDS011;76633;45.642;12.198;2024-02-26T12:29:31;8.95;;;5.00;;
50575;SDS011;76633;45.642;12.198;2024-02-26T12:31:57;9.82;;;5.00;;
50575;SDS011;76633;45.642;12.198;2024-02-26T12:34:23;11.32;;;5.07;;
50575;SDS011;76633;45.642;12.198;2024-02-26T12:36:49;7.72;;;5.05;;
50575;SDS011;76633;45.642;12.198;2024-02-26T12:39:15;8.55;;;4.93;;
50575;SDS011;76633;45.642;12.198;2024-02-26T12:41:41;11.38;;;5.30;;
50575;SDS011;76633;45.642;12.198;2024-02-26T12:44:14;9.85;;;5.45;;
50575;SDS011;76633;45.642;12.198;2024-02-26T12:46:42;10.88;;;5.32;;
50575;SDS011;76633;45.642;12.198;2024-02-26T12:49:08;8.35;;;5.70;;
50575;SDS011;76633;45.642;12.198;2024-02-26T12:54:07;7.43;;;5.30;;
50575;SDS011;76633;45.642;12.198;2024-02-26T12:56:34;12.95;;;5.72;;
50575;SDS011;76633;45.642;12.198;2024-02-26T12:59:00;9.98;;;6.15;;
50575;SDS011;76633;45.642;12.198;2024-02-26T13:01:27;11.75;;;5.72;;
50575;SDS011;76633;45.642;12.198;2024-02-26T13:03:53;12.18;;;5.82;;
50575;SDS011;76633;45.642;12.198;2024-02-26T13:06:19;7.63;;;5.45;;
50575;SDS011;76633;45.642;12.198;2024-02-26T13:08:47;13.40;;;6.40;;
50575;SDS011;76633;45.642;12.198;2024-02-26T13:11:13;17.27;;;11.20;;
50575;SDS011;76633;45.642;12.198;2024-02-26T13:13:39;17.25;;;9.68;;
50575;SDS011;76633;45.642;12.198;2024-02-26T13:16:05;7.38;;;5.65;;
50575;SDS011;76633;45.642;12.198;2024-02-26T13:18:33;7.88;;;4.82;;
50575;SDS011;76633;45.642;12.198;2024-02-26T13:21:33;7.20;;;4.70;;
50575;SDS011;76633;45.642;12.198;2024-02-26T13:23:55;8.48;;;4.55;;
50575;SDS011;76633;45.642;12.198;2024-02-26T13:26:22;8.93;;;5.78;;
50575;SDS011;76633;45.642;12.198;2024-02-26T13:28:59;13.32;;;6.22;;
50575;SDS011;76633;45.642;12.198;2024-02-26T13:31:28;7.90;;;4.50;;
50575;SDS011;76633;45.642;12.198;2024-02-26T13:33:54;10.75;;;4.72;;
50575;SDS011;76633;45.642;12.198;2024-02-26T13:36:24;8.02;;;4.40;;
50575;SDS011;76633;45.642;12.198;2024-02-26T13:38:53;7.68;;;3.78;;
50575;SDS011;76633;45.642;12.198;2024-02-26T13:41:20;7.10;;;3.97;;
50575;SDS011;76633;45.642;12.198;2024-02-26T13:43:49;7.72;;;3.97;;
50575;SDS011;76633;45.642;12.198;2024-02-26T13:46:15;5.45;;;3.25;;
50575;SDS011;76633;45.642;12.198;2024-02-26T13:48:42;7.20;;;3.40;;
50575;SDS011;76633;45.642;12.198;2024-02-26T13:51:08;6.97;;;3.67;;
50575;SDS011;76633;45.642;12.198;2024-02-26T13:53:34;6.50;;;3.67;;
50575;SDS011;76633;45.642;12.198;2024-02-26T13:56:00;10.52;;;3.78;;
50575;SDS011;76633;45.642;12.198;2024-02-26T13:58:27;6.50;;;3.58;;
50575;SDS011;76633;45.642;12.198;2024-02-26T14:00:53;6.85;;;3.22;;
50575;SDS011;76633;45.642;12.198;2024-02-26T14:03:22;5.95;;;3.10;;
50575;SDS011;76633;45.642;12.198;2024-02-26T14:05:47;9.30;;;3.15;;
50575;SDS011;76633;45.642;12.198;2024-02-26T14:08:14;6.00;;;3.03;;
50575;SDS011;76633;45.642;12.198;2024-02-26T14:10:39;6.22;;;3.35;;
50575;SDS011;76633;45.642;12.198;2024-02-26T14:13:05;6.30;;;3.10;;
50575;SDS011;76633;45.642;12.198;2024-02-26T14:15:32;7.32;;;3.65;;
50575;SDS011;76633;45.642;12.198;2024-02-26T14:18:00;10.02;;;3.78;;
50575;SDS011;76633;45.642;12.198;2024-02-26T14:20:28;5.13;;;3.28;;
50575;SDS011;76633;45.642;12.198;2024-02-26T14:22:53;4.35;;;3.00;;
50575;SDS011;76633;45.642;12.198;2024-02-26T14:25:20;5.22;;;3.33;;
50575;SDS011;76633;45.642;12.198;2024-02-26T14:27:46;5.63;;;3.22;;
50575;SDS011;76633;45.642;12.198;2024-02-26T14:30:12;6.50;;;3.10;;
50575;SDS011;76633;45.642;12.198;2024-02-26T14:32:39;7.53;;;4.10;;
50575;SDS011;76633;45.642;12.198;2024-02-26T14:35:07;7.68;;;4.25;;
50575;SDS011;76633;45.642;12.198;2024-02-26T14:37:34;8.98;;;3.75;;
50575;SDS011;76633;45.642;12.198;2024-02-26T14:40:01;8.20;;;4.03;;
50575;SDS011;76633;45.642;12.198;2024-02-26T14:42:28;7.55;;;4.30;;
50575;SDS011;76633;45.642;12.198;2024-02-26T14:44:54;8.73;;;4.88;;
50575;SDS011;76633;45.642;12.198;2024-02-26T14:47:20;10.93;;;6.22;;
50575;SDS011;76633;45.642;12.198;2024-02-26T14:49:45;7.50;;;3.90;;
50575;SDS011;76633;45.642;12.198;2024-02-26T14:52:13;9.32;;;4.25;;
50575;SDS011;76633;45.642;12.198;2024-02-26T14:54:39;11.05;;;5.45;;
50575;SDS011;76633;45.642;12.198;2024-02-26T14:57:05;6.88;;;3.75;;
50575;SDS011;76633;45.642;12.198;2024-02-26T14:59:33;9.93;;;4.18;;
50575;SDS011;76633;45.642;12.198;2024-02-26T15:02:01;8.40;;;4.32;;
50575;SDS011;76633;45.642;12.198;2024-02-26T15:04:27;8.15;;;5.28;;
50575;SDS011;76633;45.642;12.198;2024-02-26T15:06:53;11.27;;;6.35;;
50575;SDS011;76633;45.642;12.198;2024-02-26T15:09:18;12.20;;;5.50;;
50575;SDS011;76633;45.642;12.198;2024-02-26T15:11:44;13.50;;;6.20;;
50575;SDS011;76633;45.642;12.198;2024-02-26T15:14:10;8.38;;;4.53;;
50575;SDS011;76633;45.642;12.198;2024-02-26T15:16:36;8.82;;;4.72;;
50575;SDS011;76633;45.642;12.198;2024-02-26T15:19:02;8.90;;;4.75;;
50575;SDS011;76633;45.642;12.198;2024-02-26T15:21:28;8.77;;;5.40;;
50575;SDS011;76633;45.642;12.198;2024-02-26T15:23:54;10.82;;;6.10;;
50575;SDS011;76633;45.642;12.198;2024-02-26T15:26:20;16.23;;;6.82;;
50575;SDS011;76633;45.642;12.198;2024-02-26T15:28:47;13.68;;;6.95;;
50575;SDS011;76633;45.642;12.198;2024-02-26T15:31:13;11.52;;;7.43;;
50575;SDS011;76633;45.642;12.198;2024-02-26T15:33:40;11.00;;;8.02;;
50575;SDS011;76633;45.642;12.198;2024-02-26T15:36:07;14.50;;;9.55;;
50575;SDS011;76633;45.642;12.198;2024-02-26T15:38:35;10.65;;;8.45;;
50575;SDS011;76633;45.642;12.198;2024-02-26T15:41:01;12.68;;;8.57;;
50575;SDS011;76633;45.642;12.198;2024-02-26T15:43:27;12.13;;;6.88;;
50575;SDS011;76633;45.642;12.198;2024-02-26T15:45:52;11.75;;;7.40;;
50575;SDS011;76633;45.642;12.198;2024-02-26T15:48:18;11.32;;;7.72;;
50575;SDS011;76633;45.642;12.198;2024-02-26T15:50:43;10.50;;;7.47;;
50575;SDS011;76633;45.642;12.198;2024-02-26T15:53:09;12.73;;;8.00;;
50575;SDS011;76633;45.642;12.198;2024-02-26T15:55:35;10.80;;;7.40;;
50575;SDS011;76633;45.642;12.198;2024-02-26T15:58:00;12.38;;;7.95;;
50575;SDS011;76633;45.642;12.198;2024-02-26T16:00:26;11.48;;;7.65;;
50575;SDS011;76633;45.642;12.198;2024-02-26T16:02:52;14.65;;;8.75;;
50575;SDS011;76633;45.642;12.198;2024-02-26T16:05:17;13.73;;;9.70;;
50575;SDS011;76633;45.642;12.198;2024-02-26T16:07:46;11.38;;;9.02;;
50575;SDS011;76633;45.642;12.198;2024-02-26T16:10:16;15.83;;;9.57;;
50575;SDS011;76633;45.642;12.198;2024-02-26T16:12:44;14.38;;;9.75;;
50575;SDS011;76633;45.642;12.198;2024-02-26T16:15:18;14.13;;;11.05;;
50575;SDS011;76633;45.642;12.198;2024-02-26T16:17:46;18.15;;;12.55;;
50575;SDS011;76633;45.642;12.198;2024-02-26T16:20:17;15.10;;;12.07;;
50575;SDS011;76633;45.642;12.198;2024-02-26T16:22:45;20.95;;;13.73;;
50575;SDS011;76633;45.642;12.198;2024-02-26T16:25:11;14.23;;;11.50;;
50575;SDS011;76633;45.642;12.198;2024-02-26T16:27:37;14.45;;;10.52;;
50575;SDS011;76633;45.642;12.198;2024-02-26T16:30:05;13.15;;;10.75;;
50575;SDS011;76633;45.642;12.198;2024-02-26T16:32:33;11.23;;;9.30;;
50575;SDS011;76633;45.642;12.198;2024-02-26T16:35:00;12.40;;;9.25;;
50575;SDS011;76633;45.642;12.198;2024-02-26T16:37:26;12.90;;;9.93;;
50575;SDS011;76633;45.642;12.198;2024-02-26T16:39:53;14.63;;;10.27;;
50575;SDS011;76633;45.642;12.198;2024-02-26T16:42:22;15.18;;;9.68;;
50575;SDS011;76633;45.642;12.198;2024-02-26T16:44:48;15.32;;;11.20;;
50575;SDS011;76633;45.642;12.198;2024-02-26T16:47:14;11.90;;;8.18;;
50575;SDS011;76633;45.642;12.198;2024-02-26T16:49:39;14.93;;;9.00;;
50575;SDS011;76633;45.642;12.198;2024-02-26T16:52:05;11.63;;;10.32;;
50575;SDS011;76633;45.642;12.198;2024-02-26T16:54:31;12.20;;;10.90;;
50575;SDS011;76633;45.642;12.198;2024-02-26T16:56:57;16.83;;;11.25;;
50575;SDS011;76633;45.642;12.198;2024-02-26T16:59:22;13.73;;;10.93;;
50575;SDS011;76633;45.642;12.198;2024-02-26T17:01:53;12.05;;;10.75;;
50575;SDS011;76633;45.642;12.198;2024-02-26T17:04:19;14.70;;;12.27;;
50575;SDS011;76633;45.642;12.198;2024-02-26T17:06:46;12.25;;;10.07;;
50575;SDS011;76633;45.642;12.198;2024-02-26T17:09:11;10.50;;;9.27;;
50575;SDS011;76633;45.642;12.198;2024-02-26T17:11:37;9.52;;;8.48;;
50575;SDS011;76633;45.642;12.198;2024-02-26T17:14:03;11.43;;;8.38;;
50575;SDS011;76633;45.642;12.198;2024-02-26T17:16:30;10.95;;;8.50;;
50575;SDS011;76633;45.642;12.198;2024-02-26T17:18:56;13.50;;;9.82;;
50575;SDS011;76633;45.642;12.198;2024-02-26T17:21:23;12.38;;;10.60;;
50575;SDS011;76633;45.642;12.198;2024-02-26T17:23:49;11.88;;;10.55;;
50575;SDS011;76633;45.642;12.198;2024-02-26T17:26:18;12.10;;;10.45;;
50575;SDS011;76633;45.642;12.198;2024-02-26T17:28:44;11.85;;;10.23;;
50575;SDS011;76633;45.642;12.198;2024-02-26T17:31:11;13.52;;;10.43;;
50575;SDS011;76633;45.642;12.198;2024-02-26T17:33:37;12.20;;;9.20;;
50575;SDS011;76633;45.642;12.198;2024-02-26T17:36:03;10.23;;;9.20;;
50575;SDS011;76633;45.642;12.198;2024-02-26T17:38:29;10.65;;;7.72;;
50575;SDS011;76633;45.642;12.198;2024-02-26T17:40:54;8.60;;;7.10;;
50575;SDS011;76633;45.642;12.198;2024-02-26T17:43:20;11.77;;;6.75;;
50575;SDS011;76633;45.642;12.198;2024-02-26T17:45:46;8.57;;;5.85;;
50575;SDS011;76633;45.642;12.198;2024-02-26T17:48:12;5.85;;;5.28;;
50575;SDS011;76633;45.642;12.198;2024-02-26T17:50:38;6.07;;;5.15;;
50575;SDS011;76633;45.642;12.198;2024-02-26T17:53:04;9.40;;;6.28;;
50575;SDS011;76633;45.642;12.198;2024-02-26T17:55:30;5.90;;;5.30;;
50575;SDS011;76633;45.642;12.198;2024-02-26T17:57:55;7.22;;;5.30;;
50575;SDS011;76633;45.642;12.198;2024-02-26T18:00:21;9.35;;;6.13;;
50575;SDS011;76633;45.642;12.198;2024-02-26T18:02:47;50.13;;;31.58;;
50575;SDS011;76633;45.642;12.198;2024-02-26T18:05:13;68.57;;;44.92;;
50575;SDS011;76633;45.642;12.198;2024-02-26T18:07:39;55.83;;;37.45;;
50575;SDS011;76633;45.642;12.198;2024-02-26T18:10:05;22.38;;;16.73;;
50575;SDS011;76633;45.642;12.198;2024-02-26T18:12:35;11.65;;;9.60;;
50575;SDS011;76633;45.642;12.198;2024-02-26T18:15:01;10.68;;;8.32;;
50575;SDS011;76633;45.642;12.198;2024-02-26T18:17:29;8.38;;;7.00;;
50575;SDS011;76633;45.642;12.198;2024-02-26T18:19:55;7.55;;;6.72;;
50575;SDS011;76633;45.642;12.198;2024-02-26T18:22:21;8.85;;;6.63;;
50575;SDS011;76633;45.642;12.198;2024-02-26T18:24:47;11.15;;;7.90;;
50575;SDS011;76633;45.642;12.198;2024-02-26T18:27:13;17.40;;;12.73;;
50575;SDS011;76633;45.642;12.198;2024-02-26T18:29:39;13.73;;;9.50;;
50575;SDS011;76633;45.642;12.198;2024-02-26T18:32:05;11.80;;;9.63;;
50575;SDS011;76633;45.642;12.198;2024-02-26T18:34:32;13.65;;;9.27;;
50575;SDS011;76633;45.642;12.198;2024-02-26T18:36:58;19.45;;;14.32;;
50575;SDS011;76633;45.642;12.198;2024-02-26T18:39:24;11.45;;;9.93;;
50575;SDS011;76633;45.642;12.198;2024-02-26T18:41:50;13.20;;;11.70;;
50575;SDS011;76633;45.642;12.198;2024-02-26T18:44:16;17.08;;;13.70;;
50575;SDS011;76633;45.642;12.198;2024-02-26T18:46:45;14.77;;;11.82;;
50575;SDS011;76633;45.642;12.198;2024-02-26T18:49:11;15.80;;;13.50;;
50575;SDS011;76633;45.642;12.198;2024-02-26T18:51:37;22.70;;;16.60;;
50575;SDS011;76633;45.642;12.198;2024-02-26T18:54:04;34.20;;;23.23;;
50575;SDS011;76633;45.642;12.198;2024-02-26T18:56:31;27.75;;;18.05;;
50575;SDS011;76633;45.642;12.198;2024-02-26T18:58:57;15.20;;;11.48;;
50575;SDS011;76633;45.642;12.198;2024-02-26T19:01:23;14.77;;;11.38;;
50575;SDS011;76633;45.642;12.198;2024-02-26T19:03:48;12.85;;;11.52;;
50575;SDS011;76633;45.642;12.198;2024-02-26T19:06:14;16.10;;;11.68;;
50575;SDS011;76633;45.642;12.198;2024-02-26T19:08:40;10.02;;;9.02;;
50575;SDS011;76633;45.642;12.198;2024-02-26T19:11:09;13.75;;;10.50;;
50575;SDS011;76633;45.642;12.198;2024-02-26T19:13:35;11.68;;;9.52;;
50575;SDS011;76633;45.642;12.198;2024-02-26T19:16:01;11.20;;;9.93;;
50575;SDS011;76633;45.642;12.198;2024-02-26T19:18:28;12.73;;;9.98;;
50575;SDS011;76633;45.642;12.198;2024-02-26T19:20:54;11.98;;;9.40;;
50575;SDS011;76633;45.642;12.198;2024-02-26T19:23:20;10.30;;;8.32;;
50575;SDS011;76633;45.642;12.198;2024-02-26T19:25:46;12.85;;;11.15;;
50575;SDS011;76633;45.642;12.198;2024-02-26T19:28:11;10.93;;;8.88;;
50575;SDS011;76633;45.642;12.198;2024-02-26T19:30:38;8.65;;;7.03;;
50575;SDS011;76633;45.642;12.198;2024-02-26T19:33:04;7.72;;;6.60;;
50575;SDS011;76633;45.642;12.198;2024-02-26T19:35:30;7.80;;;6.72;;
50575;SDS011;76633;45.642;12.198;2024-02-26T19:37:56;10.05;;;5.97;;
50575;SDS011;76633;45.642;12.198;2024-02-26T19:40:22;7.28;;;5.97;;
50575;SDS011;76633;45.642;12.198;2024-02-26T19:42:51;9.75;;;8.00;;
50575;SDS011;76633;45.642;12.198;2024-02-26T19:45:16;16.63;;;14.90;;
50575;SDS011;76633;45.642;12.198;2024-02-26T19:47:42;8.00;;;5.78;;
50575;SDS011;76633;45.642;12.198;2024-02-26T19:50:08;9.45;;;5.38;;
50575;SDS011;76633;45.642;12.198;2024-02-26T19:52:34;7.45;;;6.22;;
50575;SDS011;76633;45.642;12.198;2024-02-26T19:55:00;5.80;;;5.30;;
50575;SDS011;76633;45.642;12.198;2024-02-26T19:57:28;7.63;;;5.28;;
50575;SDS011;76633;45.642;12.198;2024-02-26T19:59:53;5.20;;;4.47;;
50575;SDS011;76633;45.642;12.198;2024-02-26T20:02:19;6.20;;;3.97;;
50575;SDS011;76633;45.642;12.198;2024-02-26T20:04:45;5.30;;;4.80;;
50575;SDS011;76633;45.642;12.198;2024-02-26T20:07:10;9.95;;;8.07;;
50575;SDS011;76633;45.642;12.198;2024-02-26T20:09:37;17.38;;;11.38;;
50575;SDS011;76633;45.642;12.198;2024-02-26T20:12:03;13.25;;;9.57;;
50575;SDS011;76633;45.642;12.198;2024-02-26T20:14:29;6.70;;;4.88;;
50575;SDS011;76633;45.642;12.198;2024-02-26T20:16:55;5.28;;;3.72;;
50575;SDS011;76633;45.642;12.198;2024-02-26T20:19:23;5.05;;;3.83;;
50575;SDS011;76633;45.642;12.198;2024-02-26T20:21:49;4.10;;;3.63;;
50575;SDS011;76633;45.642;12.198;2024-02-26T20:24:14;5.05;;;4.38;;
50575;SDS011;76633;45.642;12.198;2024-02-26T20:26:42;5.00;;;4.32;;
50575;SDS011;76633;45.642;12.198;2024-02-26T20:29:10;5.03;;;4.13;;
50575;SDS011;76633;45.642;12.198;2024-02-26T20:31:36;4.72;;;3.72;;
50575;SDS011;76633;45.642;12.198;2024-02-26T20:34:01;4.82;;;3.97;;
50575;SDS011;76633;45.642;12.198;2024-02-26T20:36:29;4.80;;;4.25;;
50575;SDS011;76633;45.642;12.198;2024-02-26T20:38:55;6.32;;;4.55;;
50575;SDS011;76633;45.642;12.198;2024-02-26T20:41:21;4.90;;;4.35;;
50575;SDS011;76633;45.642;12.198;2024-02-26T20:43:50;4.97;;;4.35;;
50575;SDS011;76633;45.642;12.198;2024-02-26T20:46:16;4.97;;;4.40;;
50575;SDS011;76633;45.642;12.198;2024-02-26T20:48:41;5.35;;;4.30;;
50575;SDS011;76633;45.642;12.198;2024-02-26T20:51:07;4.90;;;4.20;;
50575;SDS011;76633;45.642;12.198;2024-02-26T20:53:33;4.95;;;4.45;;
50575;SDS011;76633;45.642;12.198;2024-02-26T20:55:59;4.65;;;4.07;;
50575;SDS011;76633;45.642;12.198;2024-02-26T20:58:25;5.03;;;4.20;;
50575;SDS011;76633;45.642;12.198;2024-02-26T21:00:51;6.57;;;4.35;;
50575;SDS011;76633;45.642;12.198;2024-02-26T21:03:17;4.28;;;3.88;;
50575;SDS011;76633;45.642;12.198;2024-02-26T21:05:43;4.80;;;4.15;;
50575;SDS011;76633;45.642;12.198;2024-02-26T21:08:09;4.25;;;3.85;;
50575;SDS011;76633;45.642;12.198;2024-02-26T21:10:35;4.80;;;4.30;;
50575;SDS011;76633;45.642;12.198;2024-02-26T21:13:01;4.55;;;4.15;;
50575;SDS011;76633;45.642;12.198;2024-02-26T21:15:27;5.20;;;3.92;;
50575;SDS011;76633;45.642;12.198;2024-02-26T21:17:53;4.88;;;3.80;;
50575;SDS011;76633;45.642;12.198;2024-02-26T21:20:19;4.68;;;3.83;;
50575;SDS011;76633;45.642;12.198;2024-02-26T21:22:46;5.32;;;4.30;;
50575;SDS011;76633;45.642;12.198;2024-02-26T21:25:12;4.30;;;3.90;;
50575;SDS011;76633;45.642;12.198;2024-02-26T21:27:38;4.35;;;3.58;;
50575;SDS011;76633;45.642;12.198;2024-02-26T21:30:04;4.70;;;3.30;;
50575;SDS011;76633;45.642;12.198;2024-02-26T21:32:30;4.20;;;3.17;;
50575;SDS011;76633;45.642;12.198;2024-02-26T21:34:56;4.03;;;2.97;;
50575;SDS011;76633;45.642;12.198;2024-02-26T21:37:22;4.38;;;3.53;;
50575;SDS011;76633;45.642;12.198;2024-02-26T21:39:48;3.80;;;3.40;;
50575;SDS011;76633;45.642;12.198;2024-02-26T21:42:14;3.85;;;3.20;;
50575;SDS011;76633;45.642;12.198;2024-02-26T21:44:39;6.18;;;3.15;;
50575;SDS011;76633;45.642;12.198;2024-02-26T21:47:05;3.38;;;2.88;;
50575;SDS011;76633;45.642;12.198;2024-02-26T21:49:31;3.05;;;2.70;;
50575;SDS011;76633;45.642;12.198;2024-02-26T21:51:57;2.58;;;2.38;;
50575;SDS011;76633;45.642;12.198;2024-02-26T21:54:23;2.45;;;2.10;;
50575;SDS011;76633;45.642;12.198;2024-02-26T21:56:51;2.35;;;2.10;;
50575;SDS011;76633;45.642;12.198;2024-02-26T21:59:19;1.80;;;1.70;;
50575;SDS011;76633;45.642;12.198;2024-02-26T22:01:45;2.25;;;1.58;;
50575;SDS011;76633;45.642;12.198;2024-02-26T22:04:11;3.75;;;2.30;;
50575;SDS011;76633;45.642;12.198;2024-02-26T22:06:36;3.10;;;2.03;;
50575;SDS011;76633;45.642;12.198;2024-02-26T22:09:02;4.78;;;3.47;;
50575;SDS011;76633;45.642;12.198;2024-02-26T22:11:29;4.25;;;3.17;;
50575;SDS011;76633;45.642;12.198;2024-02-26T22:13:55;3.17;;;2.20;;
50575;SDS011;76633;45.642;12.198;2024-02-26T22:16:23;3.67;;;2.53;;
50575;SDS011;76633;45.642;12.198;2024-02-26T22:18:48;3.33;;;2.10;;
50575;SDS011;76633;45.642;12.198;2024-02-26T22:21:14;1.92;;;1.73;;
50575;SDS011;76633;45.642;12.198;2024-02-26T22:23:40;2.00;;;1.63;;